Sea Explorer — 5BQC3 — position and weather

sailwx.info

Track history (hours):
 
Tides and Currents Weather Stations Pressure Air Temp Water Temp Dewpoint Dewpoint Depression Visibility Wind Speed Wind Dir Waves Ship Positions

Sea Explorer

Last reported at 2017-Dec-11 16:58 UTC. Time now 2017-Dec-11 20:38 UTC.
Position N 39°20' W 009°50'.

Length 110 m; draft 8 m.

Type: Cargo ship. MMSI: 210112000.

Date/timePositionNaut miles runAvg speedWind from/ knotsBaromVisibWave heightAir tempDewpointWater temp
2017-Dec-11 16:58N 39°20' W 009°50'3 6.5
2017-Dec-11 16:30N 39°17' W 009°50'3 6.2
2017-Dec-11 16:00N 39°14' W 009°50'3 5.9
2017-Dec-11 15:30N 39°11' W 009°50'3 6.2
2017-Dec-11 15:00N 39°08' W 009°50'3 6.8
2017-Dec-11 14:30N 39°05' W 009°51'3 7.0
2017-Dec-11 14:00N 39°01' W 009°51'3 6.7
2017-Dec-11 13:30N 38°58' W 009°51'3 7.0
2017-Dec-11 13:00N 38°54' W 009°51'4 7.0
2017-Dec-11 12:30N 38°51' W 009°51'4 7.2
2017-Dec-11 12:00N 38°47' W 009°51'3 6.6
2017-Dec-11 11:30N 38°44' W 009°51'4 7.2
2017-Dec-11 11:00N 38°40' W 009°51'4 7.3
2017-Dec-11 10:30N 38°37' W 009°50'4 7.4
2017-Dec-11 10:00N 38°33' W 009°49'4 7.1
2017-Dec-11 09:30N 38°30' W 009°48'4 7.0
2017-Dec-11 09:00N 38°26' W 009°47'4 7.0
2017-Dec-11 08:26N 38°22' W 009°46'3 6.6
2017-Dec-11 08:00N 38°20' W 009°45'3 6.1
2017-Dec-11 07:29N 38°17' W 009°44'3 6.5
2017-Dec-11 07:00N 38°14' W 009°43'3 6.4
2017-Dec-11 06:30N 38°11' W 009°41'3 6.3
2017-Dec-11 06:00N 38°08' W 009°40'3 6.3
2017-Dec-11 05:30N 38°05' W 009°39'3 6.2
2017-Dec-11 04:59N 38°02' W 009°38'3 6.9
2017-Dec-11 04:31N 37°58' W 009°37'4 7.5
2017-Dec-11 03:56N 37°54' W 009°36'3 6.5
2017-Dec-11 03:30N 37°51' W 009°35'3 5.8
2017-Dec-11 03:00N 37°49' W 009°34'4 7.1
2017-Dec-11 02:29N 37°45' W 009°33'4 7.6
2017-Dec-11 02:00N 37°41' W 009°32'  
Track history (hours):
 
Tides and Currents Weather Stations Pressure Air Temp Water Temp Dewpoint Dewpoint Depression Visibility Wind Speed Wind Dir Waves Ship Positions

Sea Explorer

Last reported at 2017-Dec-11 16:58 UTC. Time now 2017-Dec-11 20:38 UTC.
Position N 39°20' W 009°50'.

Length 110 m; draft 8 m.

Type: Cargo ship. MMSI: 210112000.

Date/timePositionNaut miles runAvg speedWind from/ knotsBaromVisibWave heightAir tempDewpointWater temp
2017-Dec-11 16:58N 39°20' W 009°50'3 6.5
2017-Dec-11 16:30N 39°17' W 009°50'3 6.2
2017-Dec-11 16:00N 39°14' W 009°50'3 5.9
2017-Dec-11 15:30N 39°11' W 009°50'3 6.2
2017-Dec-11 15:00N 39°08' W 009°50'3 6.8
2017-Dec-11 14:30N 39°05' W 009°51'3 7.0
2017-Dec-11 14:00N 39°01' W 009°51'3 6.7
2017-Dec-11 13:30N 38°58' W 009°51'3 7.0
2017-Dec-11 13:00N 38°54' W 009°51'4 7.0
2017-Dec-11 12:30N 38°51' W 009°51'4 7.2
2017-Dec-11 12:00N 38°47' W 009°51'3 6.6
2017-Dec-11 11:30N 38°44' W 009°51'4 7.2
2017-Dec-11 11:00N 38°40' W 009°51'4 7.3
2017-Dec-11 10:30N 38°37' W 009°50'4 7.4
2017-Dec-11 10:00N 38°33' W 009°49'4 7.1
2017-Dec-11 09:30N 38°30' W 009°48'4 7.0
2017-Dec-11 09:00N 38°26' W 009°47'4 7.0
2017-Dec-11 08:26N 38°22' W 009°46'3 6.6
2017-Dec-11 08:00N 38°20' W 009°45'3 6.1
2017-Dec-11 07:29N 38°17' W 009°44'3 6.5
2017-Dec-11 07:00N 38°14' W 009°43'3 6.4
2017-Dec-11 06:30N 38°11' W 009°41'3 6.3
2017-Dec-11 06:00N 38°08' W 009°40'3 6.3
2017-Dec-11 05:30N 38°05' W 009°39'3 6.2
2017-Dec-11 04:59N 38°02' W 009°38'3 6.9
2017-Dec-11 04:31N 37°58' W 009°37'4 7.5
2017-Dec-11 03:56N 37°54' W 009°36'3 6.5
2017-Dec-11 03:30N 37°51' W 009°35'3 5.8
2017-Dec-11 03:00N 37°49' W 009°34'4 7.1
2017-Dec-11 02:29N 37°45' W 009°33'4 7.6
2017-Dec-11 02:00N 37°41' W 009°32'  

Dump ship's entire track history